sensor_id;sensor_type;location;lat;lon;timestamp;pressure;altitude;pressure_sealevel;temperature;humidity
12799;BME280;19250;42.646;26.980;2023-04-22T00:02:00;98704.19;;;12.55;97.94
12799;BME280;19250;42.646;26.980;2023-04-22T00:04:27;98697.47;;;12.59;98.29
12799;BME280;19250;42.646;26.980;2023-04-22T00:06:55;98702.03;;;12.73;97.13
12799;BME280;19250;42.646;26.980;2023-04-22T00:09:22;98712.50;;;12.60;98.91
12799;BME280;19250;42.646;26.980;2023-04-22T00:11:51;98701.03;;;12.29;100.00
12799;BME280;19250;42.646;26.980;2023-04-22T00:14:19;98698.47;;;12.35;100.00
12799;BME280;19250;42.646;26.980;2023-04-22T00:16:46;98697.13;;;12.09;100.00
12799;BME280;19250;42.646;26.980;2023-04-22T00:19:13;98667.59;;;12.02;100.00
12799;BME280;19250;42.646;26.980;2023-04-22T00:21:41;98665.59;;;11.73;100.00
12799;BME280;19250;42.646;26.980;2023-04-22T00:24:08;98690.00;;;12.01;100.00
12799;BME280;19250;42.646;26.980;2023-04-22T00:26:35;98687.47;;;12.08;100.00
12799;BME280;19250;42.646;26.980;2023-04-22T00:29:04;98688.72;;;12.42;100.00
12799;BME280;19250;42.646;26.980;2023-04-22T00:31:31;98682.78;;;12.32;100.00
12799;BME280;19250;42.646;26.980;2023-04-22T00:33:58;98681.34;;;12.22;100.00
12799;BME280;19250;42.646;26.980;2023-04-22T00:36:26;98686.50;;;12.00;100.00
12799;BME280;19250;42.646;26.980;2023-04-22T00:38:53;98673.69;;;11.88;100.00
12799;BME280;19250;42.646;26.980;2023-04-22T00:41:21;98681.22;;;12.15;100.00
12799;BME280;19250;42.646;26.980;2023-04-22T00:43:49;98688.19;;;11.93;100.00
12799;BME280;19250;42.646;26.980;2023-04-22T00:46:19;98685.72;;;12.15;100.00
12799;BME280;19250;42.646;26.980;2023-04-22T00:48:47;98689.75;;;11.33;100.00
12799;BME280;19250;42.646;26.980;2023-04-22T00:51:15;98692.28;;;11.18;100.00
12799;BME280;19250;42.646;26.980;2023-04-22T00:53:42;98680.75;;;11.34;100.00
12799;BME280;19250;42.646;26.980;2023-04-22T00:56:10;98689.75;;;11.33;100.00
12799;BME280;19250;42.646;26.980;2023-04-22T00:58:38;98683.44;;;11.18;100.00
12799;BME280;19250;42.646;26.980;2023-04-22T01:01:05;98680.31;;;11.53;100.00
12799;BME280;19250;42.646;26.980;2023-04-22T01:03:35;98683.53;;;11.48;100.00
12799;BME280;19250;42.646;26.980;2023-04-22T01:06:04;98672.16;;;11.55;100.00
12799;BME280;19250;42.646;26.980;2023-04-22T01:08:32;98673.53;;;11.42;100.00
12799;BME280;19250;42.646;26.980;2023-04-22T01:11:01;98668.88;;;11.28;100.00
12799;BME280;19250;42.646;26.980;2023-04-22T01:13:29;98680.25;;;11.69;100.00
12799;BME280;19250;42.646;26.980;2023-04-22T01:15:57;98678.03;;;11.42;100.00
12799;BME280;19250;42.646;26.980;2023-04-22T01:18:28;98680.44;;;11.21;100.00
12799;BME280;19250;42.646;26.980;2023-04-22T01:20:57;98678.88;;;11.42;100.00
12799;BME280;19250;42.646;26.980;2023-04-22T01:23:26;98673.38;;;11.36;100.00
12799;BME280;19250;42.646;26.980;2023-04-22T01:25:53;98680.41;;;11.37;100.00
12799;BME280;19250;42.646;26.980;2023-04-22T01:28:22;98673.22;;;11.37;100.00
12799;BME280;19250;42.646;26.980;2023-04-22T01:30:50;98670.75;;;11.67;100.00
12799;BME280;19250;42.646;26.980;2023-04-22T01:33:18;98680.22;;;11.85;100.00
12799;BME280;19250;42.646;26.980;2023-04-22T01:35:45;98683.00;;;11.53;100.00
12799;BME280;19250;42.646;26.980;2023-04-22T01:38:12;98676.22;;;11.34;100.00
12799;BME280;19250;42.646;26.980;2023-04-22T01:40:41;98676.44;;;11.25;100.00
12799;BME280;19250;42.646;26.980;2023-04-22T01:43:08;98673.97;;;11.54;100.00
12799;BME280;19250;42.646;26.980;2023-04-22T01:45:36;98677.28;;;11.64;100.00
12799;BME280;19250;42.646;26.980;2023-04-22T01:48:03;98677.97;;;11.58;100.00
12799;BME280;19250;42.646;26.980;2023-04-22T01:50:32;98676.59;;;11.78;100.00
12799;BME280;19250;42.646;26.980;2023-04-22T01:52:59;98675.97;;;11.60;100.00
12799;BME280;19250;42.646;26.980;2023-04-22T01:55:26;98670.31;;;11.47;100.00
12799;BME280;19250;42.646;26.980;2023-04-22T01:57:55;98683.34;;;11.50;100.00
12799;BME280;19250;42.646;26.980;2023-04-22T02:00:22;98677.84;;;11.52;100.00
12799;BME280;19250;42.646;26.980;2023-04-22T02:02:50;98672.31;;;11.61;100.00
12799;BME280;19250;42.646;26.980;2023-04-22T02:05:17;98670.25;;;11.24;100.00
12799;BME280;19250;42.646;26.980;2023-04-22T02:07:44;98672.16;;;10.91;100.00
12799;BME280;19250;42.646;26.980;2023-04-22T02:10:12;98667.13;;;10.97;100.00
12799;BME280;19250;42.646;26.980;2023-04-22T02:12:40;98663.81;;;10.38;100.00
12799;BME280;19250;42.646;26.980;2023-04-22T02:15:09;98664.84;;;10.45;100.00
12799;BME280;19250;42.646;26.980;2023-04-22T02:17:37;98665.34;;;10.57;100.00
12799;BME280;19250;42.646;26.980;2023-04-22T02:20:07;98657.00;;;10.35;100.00
12799;BME280;19250;42.646;26.980;2023-04-22T02:22:36;98662.50;;;10.26;100.00
12799;BME280;19250;42.646;26.980;2023-04-22T02:25:04;98666.09;;;10.09;100.00
12799;BME280;19250;42.646;26.980;2023-04-22T02:27:33;98668.16;;;10.55;100.00
12799;BME280;19250;42.646;26.980;2023-04-22T02:30:00;98671.47;;;10.89;100.00
12799;BME280;19250;42.646;26.980;2023-04-22T02:32:30;98672.00;;;10.45;100.00
12799;BME280;19250;42.646;26.980;2023-04-22T02:34:58;98672.03;;;9.87;100.00
12799;BME280;19250;42.646;26.980;2023-04-22T02:37:26;98670.16;;;10.37;100.00
12799;BME280;19250;42.646;26.980;2023-04-22T02:39:53;98670.00;;;10.79;100.00
12799;BME280;19250;42.646;26.980;2023-04-22T02:42:21;98684.47;;;11.09;100.00
12799;BME280;19250;42.646;26.980;2023-04-22T02:44:48;98684.50;;;10.84;100.00
12799;BME280;19250;42.646;26.980;2023-04-22T02:47:16;98675.16;;;10.40;100.00
12799;BME280;19250;42.646;26.980;2023-04-22T02:49:44;98666.75;;;10.03;100.00
12799;BME280;19250;42.646;26.980;2023-04-22T02:52:11;98674.34;;;9.40;100.00
12799;BME280;19250;42.646;26.980;2023-04-22T02:54:39;98667.59;;;9.19;100.00
12799;BME280;19250;42.646;26.980;2023-04-22T02:57:07;98663.94;;;9.20;100.00
12799;BME280;19250;42.646;26.980;2023-04-22T02:59:35;98673.44;;;9.23;100.00
12799;BME280;19250;42.646;26.980;2023-04-22T03:02:03;98677.16;;;9.38;100.00
12799;BME280;19250;42.646;26.980;2023-04-22T03:04:30;98674.88;;;9.51;100.00
12799;BME280;19250;42.646;26.980;2023-04-22T03:06:59;98678.94;;;9.63;100.00
12799;BME280;19250;42.646;26.980;2023-04-22T03:09:27;98678.97;;;9.71;100.00
12799;BME280;19250;42.646;26.980;2023-04-22T03:11:54;98679.50;;;9.75;100.00
12799;BME280;19250;42.646;26.980;2023-04-22T03:14:21;98672.88;;;9.45;100.00
12799;BME280;19250;42.646;26.980;2023-04-22T03:16:49;98681.97;;;9.35;100.00
12799;BME280;19250;42.646;26.980;2023-04-22T03:19:16;98677.88;;;9.48;100.00
12799;BME280;19250;42.646;26.980;2023-04-22T03:21:43;98677.06;;;9.48;100.00
12799;BME280;19250;42.646;26.980;2023-04-22T03:24:12;98673.88;;;9.44;100.00
12799;BME280;19250;42.646;26.980;2023-04-22T03:26:39;98676.53;;;9.86;100.00
12799;BME280;19250;42.646;26.980;2023-04-22T03:29:07;98679.09;;;10.12;100.00
12799;BME280;19250;42.646;26.980;2023-04-22T03:31:34;98678.03;;;9.89;100.00
12799;BME280;19250;42.646;26.980;2023-04-22T03:34:02;98682.69;;;9.95;100.00
12799;BME280;19250;42.646;26.980;2023-04-22T03:36:29;98680.47;;;10.80;100.00
12799;BME280;19250;42.646;26.980;2023-04-22T03:38:56;98689.97;;;10.59;100.00
12799;BME280;19250;42.646;26.980;2023-04-22T03:41:25;98685.47;;;10.43;100.00
12799;BME280;19250;42.646;26.980;2023-04-22T03:43:52;98592.00;;;9.96;100.00
12799;BME280;19250;42.646;26.980;2023-04-22T03:46:20;98693.47;;;11.00;100.00
12799;BME280;19250;42.646;26.980;2023-04-22T03:48:47;98695.81;;;11.03;100.00
12799;BME280;19250;42.646;26.980;2023-04-22T03:51:14;98704.00;;;11.72;100.00
12799;BME280;19250;42.646;26.980;2023-04-22T03:53:43;98714.34;;;12.06;100.00
12799;BME280;19250;42.646;26.980;2023-04-22T03:56:11;98710.66;;;11.76;100.00
12799;BME280;19250;42.646;26.980;2023-04-22T03:58:39;98714.66;;;11.72;100.00
12799;BME280;19250;42.646;26.980;2023-04-22T04:01:07;98716.88;;;12.08;100.00
12799;BME280;19250;42.646;26.980;2023-04-22T04:03:34;98722.09;;;12.24;100.00
12799;BME280;19250;42.646;26.980;2023-04-22T04:06:01;98725.03;;;12.37;100.00
12799;BME280;19250;42.646;26.980;2023-04-22T04:08:29;98727.78;;;12.29;100.00
12799;BME280;19250;42.646;26.980;2023-04-22T04:10:56;98737.28;;;12.54;100.00
12799;BME280;19250;42.646;26.980;2023-04-22T04:13:23;98745.06;;;12.64;100.00
12799;BME280;19250;42.646;26.980;2023-04-22T04:15:52;98751.59;;;13.06;100.00
12799;BME280;19250;42.646;26.980;2023-04-22T04:18:20;98754.13;;;12.85;100.00
12799;BME280;19250;42.646;26.980;2023-04-22T04:20:48;98760.91;;;12.42;100.00
12799;BME280;19250;42.646;26.980;2023-04-22T04:23:15;98760.06;;;11.56;100.00
12799;BME280;19250;42.646;26.980;2023-04-22T04:25:43;98756.91;;;11.77;100.00
12799;BME280;19250;42.646;26.980;2023-04-22T04:28:10;98686.75;;;11.28;100.00
12799;BME280;19250;42.646;26.980;2023-04-22T04:30:38;98757.28;;;12.35;100.00
12799;BME280;19250;42.646;26.980;2023-04-22T04:33:08;98756.59;;;12.41;100.00
12799;BME280;19250;42.646;26.980;2023-04-22T04:35:36;98765.97;;;12.07;100.00
12799;BME280;19250;42.646;26.980;2023-04-22T04:38:04;98771.00;;;12.02;100.00
12799;BME280;19250;42.646;26.980;2023-04-22T04:40:32;98778.28;;;12.46;100.00
12799;BME280;19250;42.646;26.980;2023-04-22T04:43:00;98780.13;;;12.46;100.00
12799;BME280;19250;42.646;26.980;2023-04-22T04:45:29;98774.91;;;11.83;100.00
12799;BME280;19250;42.646;26.980;2023-04-22T04:47:57;98776.09;;;11.56;100.00
12799;BME280;19250;42.646;26.980;2023-04-22T04:50:26;98772.16;;;11.12;100.00
12799;BME280;19250;42.646;26.980;2023-04-22T04:52:54;98771.84;;;11.07;100.00
12799;BME280;19250;42.646;26.980;2023-04-22T04:55:22;98767.84;;;11.03;100.00
12799;BME280;19250;42.646;26.980;2023-04-22T04:57:49;98770.75;;;11.64;100.00
12799;BME280;19250;42.646;26.980;2023-04-22T05:00:16;98779.72;;;12.26;100.00
12799;BME280;19250;42.646;26.980;2023-04-22T05:02:44;98778.81;;;12.42;100.00
12799;BME280;19250;42.646;26.980;2023-04-22T05:05:11;98781.59;;;12.26;100.00
12799;BME280;19250;42.646;26.980;2023-04-22T05:07:40;98775.84;;;11.98;100.00
12799;BME280;19250;42.646;26.980;2023-04-22T05:10:08;98784.28;;;12.18;100.00
12799;BME280;19250;42.646;26.980;2023-04-22T05:12:35;98775.09;;;12.74;100.00
12799;BME280;19250;42.646;26.980;2023-04-22T05:15:04;98783.50;;;12.93;100.00
12799;BME280;19250;42.646;26.980;2023-04-22T05:17:31;98784.31;;;12.94;100.00
12799;BME280;19250;42.646;26.980;2023-04-22T05:19:58;98776.47;;;12.70;100.00
12799;BME280;19250;42.646;26.980;2023-04-22T05:22:26;98772.47;;;12.43;100.00
12799;BME280;19250;42.646;26.980;2023-04-22T05:24:54;98765.78;;;12.39;100.00
12799;BME280;19250;42.646;26.980;2023-04-22T05:27:22;98770.22;;;12.24;100.00
12799;BME280;19250;42.646;26.980;2023-04-22T05:29:49;98774.16;;;12.36;100.00
12799;BME280;19250;42.646;26.980;2023-04-22T05:32:16;98782.94;;;12.52;100.00
12799;BME280;19250;42.646;26.980;2023-04-22T05:34:43;98775.19;;;13.63;100.00
12799;BME280;19250;42.646;26.980;2023-04-22T05:37:11;98788.31;;;14.16;100.00
12799;BME280;19250;42.646;26.980;2023-04-22T05:39:38;98782.31;;;14.65;100.00
12799;BME280;19250;42.646;26.980;2023-04-22T05:42:07;98786.59;;;15.23;98.06
12799;BME280;19250;42.646;26.980;2023-04-22T05:44:34;98792.44;;;15.48;95.29
12799;BME280;19250;42.646;26.980;2023-04-22T05:47:02;98798.16;;;15.66;92.24
12799;BME280;19250;42.646;26.980;2023-04-22T05:49:29;98789.66;;;15.13;100.00
12799;BME280;19250;42.646;26.980;2023-04-22T05:51:56;98796.66;;;16.25;87.96
12799;BME280;19250;42.646;26.980;2023-04-22T05:54:24;98809.06;;;16.67;85.44
12799;BME280;19250;42.646;26.980;2023-04-22T05:56:51;98807.31;;;16.47;90.91
12799;BME280;19250;42.646;26.980;2023-04-22T05:59:20;98810.53;;;16.63;91.58
12799;BME280;19250;42.646;26.980;2023-04-22T06:01:47;98808.34;;;16.93;83.07
12799;BME280;19250;42.646;26.980;2023-04-22T06:04:15;98805.16;;;16.76;85.89
12799;BME280;19250;42.646;26.980;2023-04-22T06:06:42;98817.88;;;16.48;92.56
12799;BME280;19250;42.646;26.980;2023-04-22T06:09:09;98808.28;;;16.32;98.12
12799;BME280;19250;42.646;26.980;2023-04-22T06:11:36;98816.16;;;16.75;89.92
12799;BME280;19250;42.646;26.980;2023-04-22T06:14:05;98820.09;;;16.79;93.95
12799;BME280;19250;42.646;26.980;2023-04-22T06:16:34;98825.31;;;17.00;81.70
12799;BME280;19250;42.646;26.980;2023-04-22T06:19:01;98824.91;;;16.97;85.16
12799;BME280;19250;42.646;26.980;2023-04-22T06:21:28;98828.97;;;16.73;91.01
12799;BME280;19250;42.646;26.980;2023-04-22T06:23:57;98827.84;;;17.08;84.27
12799;BME280;19250;42.646;26.980;2023-04-22T06:26:24;98834.56;;;16.71;90.20
12799;BME280;19250;42.646;26.980;2023-04-22T06:28:51;98833.81;;;16.50;88.80
12799;BME280;19250;42.646;26.980;2023-04-22T06:31:19;98839.97;;;16.78;78.97
12799;BME280;19250;42.646;26.980;2023-04-22T06:33:47;98834.59;;;16.78;82.46
12799;BME280;19250;42.646;26.980;2023-04-22T06:36:15;98838.22;;;17.11;76.19
12799;BME280;19250;42.646;26.980;2023-04-22T06:38:42;98843.81;;;17.23;71.07
12799;BME280;19250;42.646;26.980;2023-04-22T06:41:09;98855.47;;;17.36;72.38
12799;BME280;19250;42.646;26.980;2023-04-22T06:43:36;98848.59;;;17.34;77.32
12799;BME280;19250;42.646;26.980;2023-04-22T06:46:04;98853.97;;;17.21;77.55
12799;BME280;19250;42.646;26.980;2023-04-22T06:48:31;98858.19;;;17.56;71.50
12799;BME280;19250;42.646;26.980;2023-04-22T06:51:00;98864.00;;;17.86;69.30
12799;BME280;19250;42.646;26.980;2023-04-22T06:53:27;98866.50;;;17.55;73.35
12799;BME280;19250;42.646;26.980;2023-04-22T06:55:55;98865.00;;;17.52;72.08
12799;BME280;19250;42.646;26.980;2023-04-22T06:58:23;98859.44;;;17.93;63.54
12799;BME280;19250;42.646;26.980;2023-04-22T07:00:50;98856.91;;;17.39;71.12
12799;BME280;19250;42.646;26.980;2023-04-22T07:03:18;98856.47;;;17.22;72.66
12799;BME280;19250;42.646;26.980;2023-04-22T07:05:46;98859.84;;;18.16;65.14
12799;BME280;19250;42.646;26.980;2023-04-22T07:08:15;98866.84;;;18.43;64.26
12799;BME280;19250;42.646;26.980;2023-04-22T07:10:43;98867.03;;;18.35;61.75
12799;BME280;19250;42.646;26.980;2023-04-22T07:13:10;98868.47;;;18.58;58.76
12799;BME280;19250;42.646;26.980;2023-04-22T07:15:38;98872.13;;;18.76;58.29
12799;BME280;19250;42.646;26.980;2023-04-22T07:18:05;98866.16;;;19.06;55.24
12799;BME280;19250;42.646;26.980;2023-04-22T07:20:32;98869.81;;;19.24;52.36
12799;BME280;19250;42.646;26.980;2023-04-22T07:23:00;98867.00;;;19.06;51.12
12799;BME280;19250;42.646;26.980;2023-04-22T07:25:28;98870.63;;;18.16;58.88
12799;BME280;19250;42.646;26.980;2023-04-22T07:27:56;98875.38;;;18.98;50.10
12799;BME280;19250;42.646;26.980;2023-04-22T07:30:23;98877.28;;;17.94;53.88
12799;BME280;19250;42.646;26.980;2023-04-22T07:32:50;98874.78;;;18.12;56.95
12799;BME280;19250;42.646;26.980;2023-04-22T07:35:18;98874.06;;;19.07;50.61
12799;BME280;19250;42.646;26.980;2023-04-22T07:37:45;98873.34;;;19.63;48.65
12799;BME280;19250;42.646;26.980;2023-04-22T07:40:12;98875.53;;;19.97;48.64
12799;BME280;19250;42.646;26.980;2023-04-22T07:42:41;98877.69;;;20.38;45.07
12799;BME280;19250;42.646;26.980;2023-04-22T07:45:08;98876.66;;;20.14;46.23
12799;BME280;19250;42.646;26.980;2023-04-22T07:47:36;98881.75;;;19.10;51.64
12799;BME280;19250;42.646;26.980;2023-04-22T07:50:04;98882.47;;;19.93;46.87
12799;BME280;19250;42.646;26.980;2023-04-22T07:52:31;98884.16;;;20.55;45.11
12799;BME280;19250;42.646;26.980;2023-04-22T07:54:59;98887.88;;;19.93;46.61
12799;BME280;19250;42.646;26.980;2023-04-22T07:57:26;98879.41;;;20.32;46.67
12799;BME280;19250;42.646;26.980;2023-04-22T07:59:55;98879.31;;;19.40;50.64
12799;BME280;19250;42.646;26.980;2023-04-22T08:02:22;98879.91;;;19.73;47.35
12799;BME280;19250;42.646;26.980;2023-04-22T08:04:49;98879.72;;;20.42;46.44
12799;BME280;19250;42.646;26.980;2023-04-22T08:07:17;98884.47;;;20.65;44.30
12799;BME280;19250;42.646;26.980;2023-04-22T08:09:44;98895.81;;;21.28;40.62
12799;BME280;19250;42.646;26.980;2023-04-22T08:12:11;98884.91;;;21.46;41.71
12799;BME280;19250;42.646;26.980;2023-04-22T08:14:39;98891.88;;;21.06;41.58
12799;BME280;19250;42.646;26.980;2023-04-22T08:17:07;98892.50;;;20.90;42.64
12799;BME280;19250;42.646;26.980;2023-04-22T08:19:35;98899.31;;;21.29;42.26
12799;BME280;19250;42.646;26.980;2023-04-22T08:22:02;98895.00;;;21.39;42.82
12799;BME280;19250;42.646;26.980;2023-04-22T08:24:29;98892.63;;;21.84;42.87
12799;BME280;19250;42.646;26.980;2023-04-22T08:26:56;98895.28;;;21.91;43.00
12799;BME280;19250;42.646;26.980;2023-04-22T08:29:24;98895.53;;;22.01;42.39
12799;BME280;19250;42.646;26.980;2023-04-22T08:31:51;98895.13;;;21.74;42.45
12799;BME280;19250;42.646;26.980;2023-04-22T08:34:19;98887.81;;;21.45;42.26
12799;BME280;19250;42.646;26.980;2023-04-22T08:36:47;98898.06;;;21.84;42.42
12799;BME280;19250;42.646;26.980;2023-04-22T08:39:14;98895.84;;;21.40;45.77
12799;BME280;19250;42.646;26.980;2023-04-22T08:41:42;98894.22;;;21.92;43.47
12799;BME280;19250;42.646;26.980;2023-04-22T08:44:11;98890.59;;;21.68;41.88
12799;BME280;19250;42.646;26.980;2023-04-22T08:46:40;98884.03;;;21.34;42.82
12799;BME280;19250;42.646;26.980;2023-04-22T08:49:12;98898.00;;;22.14;41.01
12799;BME280;19250;42.646;26.980;2023-04-22T08:51:43;98874.00;;;21.88;43.05
12799;BME280;19250;42.646;26.980;2023-04-22T08:54:10;98879.94;;;22.08;42.65
12799;BME280;19250;42.646;26.980;2023-04-22T08:56:40;98885.56;;;21.42;45.91
12799;BME280;19250;42.646;26.980;2023-04-22T08:59:09;98870.75;;;19.43;50.12
12799;BME280;19250;42.646;26.980;2023-04-22T09:01:38;98886.94;;;19.81;47.90
12799;BME280;19250;42.646;26.980;2023-04-22T09:04:08;98874.94;;;19.95;47.70
12799;BME280;19250;42.646;26.980;2023-04-22T09:06:37;98820.66;;;19.40;47.92
12799;BME280;19250;42.646;26.980;2023-04-22T09:09:06;98883.09;;;21.10;45.34
12799;BME280;19250;42.646;26.980;2023-04-22T09:11:34;98894.66;;;21.77;44.48
12799;BME280;19250;42.646;26.980;2023-04-22T09:14:02;98889.63;;;22.04;44.24
12799;BME280;19250;42.646;26.980;2023-04-22T09:16:30;98891.53;;;22.38;42.36
12799;BME280;19250;42.646;26.980;2023-04-22T09:18:58;98885.28;;;22.26;41.05
12799;BME280;19250;42.646;26.980;2023-04-22T09:21:26;98898.81;;;22.96;38.66
12799;BME280;19250;42.646;26.980;2023-04-22T09:23:55;98889.19;;;22.65;38.30
12799;BME280;19250;42.646;26.980;2023-04-22T09:26:25;98890.03;;;22.94;38.33
12799;BME280;19250;42.646;26.980;2023-04-22T09:28:53;98888.66;;;23.93;35.60
12799;BME280;19250;42.646;26.980;2023-04-22T09:31:21;98889.31;;;23.66;36.75
12799;BME280;19250;42.646;26.980;2023-04-22T09:33:50;98888.59;;;23.14;37.33
12799;BME280;19250;42.646;26.980;2023-04-22T09:36:21;98880.66;;;22.50;38.57
12799;BME280;19250;42.646;26.980;2023-04-22T09:38:52;98885.84;;;22.51;39.16
12799;BME280;19250;42.646;26.980;2023-04-22T09:41:28;98884.69;;;22.47;38.05
12799;BME280;19250;42.646;26.980;2023-04-22T09:43:56;98882.97;;;21.77;38.54
12799;BME280;19250;42.646;26.980;2023-04-22T09:46:25;98882.16;;;21.88;39.12
12799;BME280;19250;42.646;26.980;2023-04-22T09:48:54;98881.38;;;23.08;37.46
12799;BME280;19250;42.646;26.980;2023-04-22T09:51:22;98875.78;;;23.71;35.99
12799;BME280;19250;42.646;26.980;2023-04-22T09:54:00;98794.84;;;23.22;35.19
12799;BME280;19250;42.646;26.980;2023-04-22T09:56:47;98873.44;;;25.07;33.17
12799;BME280;19250;42.646;26.980;2023-04-22T09:59:18;98870.34;;;23.88;35.91
12799;BME280;19250;42.646;26.980;2023-04-22T10:01:48;98869.03;;;24.24;34.26
12799;BME280;19250;42.646;26.980;2023-04-22T10:04:15;98867.84;;;23.53;35.16
12799;BME280;19250;42.646;26.980;2023-04-22T10:06:46;98862.88;;;23.22;35.47
12799;BME280;19250;42.646;26.980;2023-04-22T10:09:14;98859.94;;;23.68;34.81
12799;BME280;19250;42.646;26.980;2023-04-22T10:12:03;98854.25;;;24.20;33.94
12799;BME280;19250;42.646;26.980;2023-04-22T10:14:30;98857.97;;;24.30;33.60
12799;BME280;19250;42.646;26.980;2023-04-22T10:16:58;98856.53;;;25.31;31.65
12799;BME280;19250;42.646;26.980;2023-04-22T10:19:27;98849.38;;;27.20;29.43
12799;BME280;19250;42.646;26.980;2023-04-22T10:21:56;98850.03;;;28.28;28.50
12799;BME280;19250;42.646;26.980;2023-04-22T10:24:26;98847.53;;;26.73;29.49
12799;BME280;19250;42.646;26.980;2023-04-22T10:26:55;98826.88;;;25.72;30.57
12799;BME280;19250;42.646;26.980;2023-04-22T10:29:25;98835.75;;;28.36;27.92
12799;BME280;19250;42.646;26.980;2023-04-22T10:31:54;98819.66;;;28.93;28.12
12799;BME280;19250;42.646;26.980;2023-04-22T10:34:23;98804.00;;;28.09;27.93
12799;BME280;19250;42.646;26.980;2023-04-22T10:36:58;98827.00;;;24.58;32.01
12799;BME280;19250;42.646;26.980;2023-04-22T10:39:27;98825.28;;;24.14;32.22
12799;BME280;19250;42.646;26.980;2023-04-22T10:42:07;98818.34;;;24.06;32.79
12799;BME280;19250;42.646;26.980;2023-04-22T10:44:48;98822.81;;;25.21;31.65
12799;BME280;19250;42.646;26.980;2023-04-22T10:47:26;98818.50;;;26.67;29.67
12799;BME280;19250;42.646;26.980;2023-04-22T10:50:18;98816.75;;;26.41;29.37
12799;BME280;19250;42.646;26.980;2023-04-22T10:52:49;98825.94;;;25.08;31.47
12799;BME280;19250;42.646;26.980;2023-04-22T10:55:17;98817.97;;;24.79;30.81
12799;BME280;19250;42.646;26.980;2023-04-22T10:57:45;98810.78;;;24.30;31.14
12799;BME280;19250;42.646;26.980;2023-04-22T11:00:38;98818.63;;;24.43;31.88
12799;BME280;19250;42.646;26.980;2023-04-22T11:03:14;98811.19;;;24.38;31.17
12799;BME280;19250;42.646;26.980;2023-04-22T11:05:42;98811.53;;;24.25;31.60
12799;BME280;19250;42.646;26.980;2023-04-22T11:08:17;98803.25;;;23.82;33.19
12799;BME280;19250;42.646;26.980;2023-04-22T11:10:47;98813.72;;;23.73;33.69
12799;BME280;19250;42.646;26.980;2023-04-22T11:13:16;98811.66;;;23.64;34.00
12799;BME280;19250;42.646;26.980;2023-04-22T11:15:46;98819.63;;;23.09;34.49
12799;BME280;19250;42.646;26.980;2023-04-22T11:18:17;98811.81;;;23.41;34.33
12799;BME280;19250;42.646;26.980;2023-04-22T11:20:45;98815.72;;;23.78;32.85
12799;BME280;19250;42.646;26.980;2023-04-22T11:23:22;98814.28;;;23.59;32.98
12799;BME280;19250;42.646;26.980;2023-04-22T11:25:54;98811.63;;;24.30;31.76
12799;BME280;19250;42.646;26.980;2023-04-22T11:28:22;98817.50;;;23.39;32.06
12799;BME280;19250;42.646;26.980;2023-04-22T11:30:51;98819.81;;;23.47;32.26
12799;BME280;19250;42.646;26.980;2023-04-22T11:33:18;98821.63;;;23.92;31.18
12799;BME280;19250;42.646;26.980;2023-04-22T11:35:48;98828.72;;;24.09;29.71
12799;BME280;19250;42.646;26.980;2023-04-22T11:38:16;98805.94;;;23.99;32.09
12799;BME280;19250;42.646;26.980;2023-04-22T11:40:43;98838.50;;;23.27;37.49
12799;BME280;19250;42.646;26.980;2023-04-22T11:43:11;98836.13;;;22.91;38.44
12799;BME280;19250;42.646;26.980;2023-04-22T11:45:38;98835.72;;;22.70;39.75
12799;BME280;19250;42.646;26.980;2023-04-22T11:48:08;98847.78;;;22.51;38.85
12799;BME280;19250;42.646;26.980;2023-04-22T11:50:37;98848.78;;;20.07;41.52
12799;BME280;19250;42.646;26.980;2023-04-22T11:53:12;98840.44;;;19.34;45.35
12799;BME280;19250;42.646;26.980;2023-04-22T11:55:40;98837.72;;;18.45;46.10
12799;BME280;19250;42.646;26.980;2023-04-22T11:58:10;98882.19;;;17.38;51.09
12799;BME280;19250;42.646;26.980;2023-04-22T12:00:40;98884.03;;;17.31;55.79
12799;BME280;19250;42.646;26.980;2023-04-22T12:03:12;98871.22;;;17.46;60.72
12799;BME280;19250;42.646;26.980;2023-04-22T12:05:41;98870.44;;;16.85;60.80
12799;BME280;19250;42.646;26.980;2023-04-22T12:08:10;98859.78;;;16.23;67.32
12799;BME280;19250;42.646;26.980;2023-04-22T12:10:42;98866.41;;;16.61;73.20
12799;BME280;19250;42.646;26.980;2023-04-22T12:13:16;98873.50;;;17.42;67.87
12799;BME280;19250;42.646;26.980;2023-04-22T12:15:43;98854.47;;;16.77;64.33
12799;BME280;19250;42.646;26.980;2023-04-22T12:18:12;98823.84;;;16.84;58.02
12799;BME280;19250;42.646;26.980;2023-04-22T12:20:40;98824.34;;;17.93;52.97
12799;BME280;19250;42.646;26.980;2023-04-22T12:23:16;98816.03;;;18.08;53.17
12799;BME280;19250;42.646;26.980;2023-04-22T12:25:43;98816.69;;;17.90;58.85
12799;BME280;19250;42.646;26.980;2023-04-22T12:28:11;98800.06;;;18.06;54.85
12799;BME280;19250;42.646;26.980;2023-04-22T12:30:38;98799.09;;;18.52;54.10
12799;BME280;19250;42.646;26.980;2023-04-22T12:33:06;98792.28;;;19.49;47.18
12799;BME280;19250;42.646;26.980;2023-04-22T12:35:35;98800.97;;;20.01;45.78
12799;BME280;19250;42.646;26.980;2023-04-22T12:38:02;98801.47;;;21.00;44.22
12799;BME280;19250;42.646;26.980;2023-04-22T12:40:30;98807.91;;;21.17;43.06
12799;BME280;19250;42.646;26.980;2023-04-22T12:42:57;98807.91;;;20.70;46.64
12799;BME280;19250;42.646;26.980;2023-04-22T12:45:24;98796.13;;;19.60;48.47
12799;BME280;19250;42.646;26.980;2023-04-22T12:47:51;98799.78;;;18.85;53.07
12799;BME280;19250;42.646;26.980;2023-04-22T12:50:20;98801.63;;;18.40;58.43
12799;BME280;19250;42.646;26.980;2023-04-22T12:52:48;98809.06;;;18.58;57.24